sensor_id;sensor_type;location;lat;lon;timestamp;temperature;humidity
41928;DHT22;27616;51.420;6.788;2023-09-07T00:00:10;19.40;99.90
41928;DHT22;27616;51.420;6.788;2023-09-07T00:02:37;19.40;99.90
41928;DHT22;27616;51.420;6.788;2023-09-07T00:05:05;19.30;99.90
41928;DHT22;27616;51.420;6.788;2023-09-07T00:07:31;19.30;99.90
41928;DHT22;27616;51.420;6.788;2023-09-07T00:09:57;19.30;99.90
41928;DHT22;27616;51.420;6.788;2023-09-07T00:12:22;19.30;99.90
41928;DHT22;27616;51.420;6.788;2023-09-07T00:14:48;19.20;99.90
41928;DHT22;27616;51.420;6.788;2023-09-07T00:17:14;19.20;99.90
41928;DHT22;27616;51.420;6.788;2023-09-07T00:19:39;19.10;99.90
41928;DHT22;27616;51.420;6.788;2023-09-07T00:22:05;19.10;99.90
41928;DHT22;27616;51.420;6.788;2023-09-07T00:24:31;19.10;99.90
41928;DHT22;27616;51.420;6.788;2023-09-07T00:26:59;19.10;99.90
41928;DHT22;27616;51.420;6.788;2023-09-07T00:29:25;19.00;99.90
41928;DHT22;27616;51.420;6.788;2023-09-07T00:31:50;19.00;99.90
41928;DHT22;27616;51.420;6.788;2023-09-07T00:34:18;19.00;99.90
41928;DHT22;27616;51.420;6.788;2023-09-07T00:36:43;19.00;99.90
41928;DHT22;27616;51.420;6.788;2023-09-07T00:39:09;18.90;99.90
41928;DHT22;27616;51.420;6.788;2023-09-07T00:41:35;18.90;99.90
41928;DHT22;27616;51.420;6.788;2023-09-07T00:44:00;18.90;99.90
41928;DHT22;27616;51.420;6.788;2023-09-07T00:46:26;19.00;99.90
41928;DHT22;27616;51.420;6.788;2023-09-07T00:48:52;19.00;99.90
41928;DHT22;27616;51.420;6.788;2023-09-07T00:51:18;19.00;99.90
41928;DHT22;27616;51.420;6.788;2023-09-07T00:53:43;19.20;99.90
41928;DHT22;27616;51.420;6.788;2023-09-07T00:56:09;19.30;99.90
41928;DHT22;27616;51.420;6.788;2023-09-07T00:58:36;19.30;99.90
41928;DHT22;27616;51.420;6.788;2023-09-07T01:01:02;19.40;99.90
41928;DHT22;27616;51.420;6.788;2023-09-07T01:03:28;19.40;99.90
41928;DHT22;27616;51.420;6.788;2023-09-07T01:06:10;19.40;99.90
41928;DHT22;27616;51.420;6.788;2023-09-07T01:08:46;19.40;99.90
41928;DHT22;27616;51.420;6.788;2023-09-07T01:11:18;19.30;99.90
41928;DHT22;27616;51.420;6.788;2023-09-07T01:13:50;19.30;99.90
41928;DHT22;27616;51.420;6.788;2023-09-07T01:16:17;19.20;99.90
41928;DHT22;27616;51.420;6.788;2023-09-07T01:18:45;19.20;99.90
41928;DHT22;27616;51.420;6.788;2023-09-07T01:21:11;19.10;99.90
41928;DHT22;27616;51.420;6.788;2023-09-07T01:23:41;19.10;99.90
41928;DHT22;27616;51.420;6.788;2023-09-07T01:26:08;19.00;99.90
41928;DHT22;27616;51.420;6.788;2023-09-07T01:28:34;19.00;99.90
41928;DHT22;27616;51.420;6.788;2023-09-07T01:31:00;19.00;99.90
41928;DHT22;27616;51.420;6.788;2023-09-07T01:33:30;18.90;99.90
41928;DHT22;27616;51.420;6.788;2023-09-07T01:35:56;18.90;99.90
41928;DHT22;27616;51.420;6.788;2023-09-07T01:38:22;18.80;99.90
41928;DHT22;27616;51.420;6.788;2023-09-07T01:40:48;18.80;99.90
41928;DHT22;27616;51.420;6.788;2023-09-07T01:43:14;18.70;99.90
41928;DHT22;27616;51.420;6.788;2023-09-07T01:45:39;18.70;99.90
41928;DHT22;27616;51.420;6.788;2023-09-07T01:48:14;18.70;99.90
41928;DHT22;27616;51.420;6.788;2023-09-07T01:50:39;18.70;99.90
41928;DHT22;27616;51.420;6.788;2023-09-07T01:53:05;18.60;99.90
41928;DHT22;27616;51.420;6.788;2023-09-07T01:55:32;18.60;99.90
41928;DHT22;27616;51.420;6.788;2023-09-07T01:57:59;18.50;99.90
41928;DHT22;27616;51.420;6.788;2023-09-07T02:00:25;18.50;99.90
41928;DHT22;27616;51.420;6.788;2023-09-07T02:02:50;18.40;99.90
41928;DHT22;27616;51.420;6.788;2023-09-07T02:05:16;18.40;99.90
41928;DHT22;27616;51.420;6.788;2023-09-07T02:07:42;18.40;99.90
41928;DHT22;27616;51.420;6.788;2023-09-07T02:10:08;18.30;99.90
41928;DHT22;27616;51.420;6.788;2023-09-07T02:12:34;18.30;99.90
41928;DHT22;27616;51.420;6.788;2023-09-07T02:15:02;18.30;99.90
41928;DHT22;27616;51.420;6.788;2023-09-07T02:17:28;18.20;99.90
41928;DHT22;27616;51.420;6.788;2023-09-07T02:19:54;18.20;99.90
41928;DHT22;27616;51.420;6.788;2023-09-07T02:22:19;18.20;99.90
41928;DHT22;27616;51.420;6.788;2023-09-07T02:24:45;18.20;99.90
41928;DHT22;27616;51.420;6.788;2023-09-07T02:27:11;18.10;99.90
41928;DHT22;27616;51.420;6.788;2023-09-07T02:29:36;18.10;99.90
41928;DHT22;27616;51.420;6.788;2023-09-07T02:32:04;18.10;99.90
41928;DHT22;27616;51.420;6.788;2023-09-07T02:34:30;18.10;99.90
41928;DHT22;27616;51.420;6.788;2023-09-07T02:36:56;18.10;99.90
41928;DHT22;27616;51.420;6.788;2023-09-07T02:39:23;18.10;99.90
41928;DHT22;27616;51.420;6.788;2023-09-07T02:41:52;18.10;99.90
41928;DHT22;27616;51.420;6.788;2023-09-07T02:44:17;18.10;99.90
41928;DHT22;27616;51.420;6.788;2023-09-07T02:46:43;18.00;99.90
41928;DHT22;27616;51.420;6.788;2023-09-07T02:49:09;18.00;99.90
41928;DHT22;27616;51.420;6.788;2023-09-07T02:51:35;18.00;99.90
41928;DHT22;27616;51.420;6.788;2023-09-07T02:54:02;18.00;99.90
41928;DHT22;27616;51.420;6.788;2023-09-07T02:56:30;17.90;99.90
41928;DHT22;27616;51.420;6.788;2023-09-07T02:58:56;17.90;99.90
41928;DHT22;27616;51.420;6.788;2023-09-07T03:01:22;17.90;99.90
41928;DHT22;27616;51.420;6.788;2023-09-07T03:03:48;17.80;99.90
41928;DHT22;27616;51.420;6.788;2023-09-07T03:06:15;17.80;99.90
41928;DHT22;27616;51.420;6.788;2023-09-07T03:08:48;17.80;99.90
41928;DHT22;27616;51.420;6.788;2023-09-07T03:11:14;17.70;99.90
41928;DHT22;27616;51.420;6.788;2023-09-07T03:13:40;17.70;99.90
41928;DHT22;27616;51.420;6.788;2023-09-07T03:16:07;17.60;99.90
41928;DHT22;27616;51.420;6.788;2023-09-07T03:18:33;17.60;99.90
41928;DHT22;27616;51.420;6.788;2023-09-07T03:21:00;17.50;99.90
41928;DHT22;27616;51.420;6.788;2023-09-07T03:23:30;17.50;99.90
41928;DHT22;27616;51.420;6.788;2023-09-07T03:25:57;17.40;99.90
41928;DHT22;27616;51.420;6.788;2023-09-07T03:28:24;17.40;99.90
41928;DHT22;27616;51.420;6.788;2023-09-07T03:30:51;17.30;99.90
41928;DHT22;27616;51.420;6.788;2023-09-07T03:33:17;17.30;99.90
41928;DHT22;27616;51.420;6.788;2023-09-07T03:35:42;17.30;99.90
41928;DHT22;27616;51.420;6.788;2023-09-07T03:38:08;17.20;99.90
41928;DHT22;27616;51.420;6.788;2023-09-07T03:40:34;17.20;99.90
41928;DHT22;27616;51.420;6.788;2023-09-07T03:43:00;17.20;99.90
41928;DHT22;27616;51.420;6.788;2023-09-07T03:45:26;17.10;99.90
41928;DHT22;27616;51.420;6.788;2023-09-07T03:47:52;17.10;99.90
41928;DHT22;27616;51.420;6.788;2023-09-07T03:50:18;17.10;99.90
41928;DHT22;27616;51.420;6.788;2023-09-07T03:52:44;17.00;99.90
41928;DHT22;27616;51.420;6.788;2023-09-07T03:55:10;17.00;99.90
41928;DHT22;27616;51.420;6.788;2023-09-07T03:57:37;16.90;99.90
41928;DHT22;27616;51.420;6.788;2023-09-07T04:00:03;16.90;99.90
41928;DHT22;27616;51.420;6.788;2023-09-07T04:02:38;16.90;99.90
41928;DHT22;27616;51.420;6.788;2023-09-07T04:05:05;16.80;99.90
41928;DHT22;27616;51.420;6.788;2023-09-07T04:07:31;16.80;99.90
41928;DHT22;27616;51.420;6.788;2023-09-07T04:09:58;16.80;99.90
41928;DHT22;27616;51.420;6.788;2023-09-07T04:12:24;16.80;99.90
41928;DHT22;27616;51.420;6.788;2023-09-07T04:14:50;16.70;99.90
41928;DHT22;27616;51.420;6.788;2023-09-07T04:17:15;16.70;99.90
41928;DHT22;27616;51.420;6.788;2023-09-07T04:19:41;16.70;99.90
41928;DHT22;27616;51.420;6.788;2023-09-07T04:22:08;16.60;99.90
41928;DHT22;27616;51.420;6.788;2023-09-07T04:24:34;16.60;99.90
41928;DHT22;27616;51.420;6.788;2023-09-07T04:27:01;16.60;99.90
41928;DHT22;27616;51.420;6.788;2023-09-07T04:29:27;16.50;99.90
41928;DHT22;27616;51.420;6.788;2023-09-07T04:31:53;16.50;99.90
41928;DHT22;27616;51.420;6.788;2023-09-07T04:34:20;16.50;99.90
41928;DHT22;27616;51.420;6.788;2023-09-07T04:36:46;16.50;99.90
41928;DHT22;27616;51.420;6.788;2023-09-07T04:39:12;16.50;99.90
41928;DHT22;27616;51.420;6.788;2023-09-07T04:41:40;16.50;99.90
41928;DHT22;27616;51.420;6.788;2023-09-07T04:44:06;16.50;99.90
41928;DHT22;27616;51.420;6.788;2023-09-07T04:46:32;16.50;99.90
41928;DHT22;27616;51.420;6.788;2023-09-07T04:48:58;16.50;99.90
41928;DHT22;27616;51.420;6.788;2023-09-07T04:51:23;16.50;99.90
41928;DHT22;27616;51.420;6.788;2023-09-07T04:53:51;16.50;99.90
41928;DHT22;27616;51.420;6.788;2023-09-07T04:56:17;16.50;99.90
41928;DHT22;27616;51.420;6.788;2023-09-07T04:58:43;16.50;99.90
41928;DHT22;27616;51.420;6.788;2023-09-07T05:01:10;16.50;99.90
41928;DHT22;27616;51.420;6.788;2023-09-07T05:03:37;16.50;99.90
41928;DHT22;27616;51.420;6.788;2023-09-07T05:06:04;16.50;99.90
41928;DHT22;27616;51.420;6.788;2023-09-07T05:08:30;16.50;99.90
41928;DHT22;27616;51.420;6.788;2023-09-07T05:10:56;16.60;99.90
41928;DHT22;27616;51.420;6.788;2023-09-07T05:13:23;16.60;99.90
41928;DHT22;27616;51.420;6.788;2023-09-07T05:15:50;16.60;99.90
41928;DHT22;27616;51.420;6.788;2023-09-07T05:18:17;16.70;99.90
41928;DHT22;27616;51.420;6.788;2023-09-07T05:20:43;16.70;99.90
41928;DHT22;27616;51.420;6.788;2023-09-07T05:23:14;16.70;99.90
41928;DHT22;27616;51.420;6.788;2023-09-07T05:25:55;16.90;99.90
41928;DHT22;27616;51.420;6.788;2023-09-07T05:28:23;16.90;99.90
41928;DHT22;27616;51.420;6.788;2023-09-07T05:30:50;17.00;99.90
41928;DHT22;27616;51.420;6.788;2023-09-07T05:33:17;17.10;99.90
41928;DHT22;27616;51.420;6.788;2023-09-07T05:35:44;17.10;99.90
41928;DHT22;27616;51.420;6.788;2023-09-07T05:38:11;17.10;99.90
41928;DHT22;27616;51.420;6.788;2023-09-07T05:40:42;17.20;99.90
41928;DHT22;27616;51.420;6.788;2023-09-07T05:43:12;17.20;99.90
41928;DHT22;27616;51.420;6.788;2023-09-07T05:45:40;17.20;99.90
41928;DHT22;27616;51.420;6.788;2023-09-07T05:48:07;17.30;99.90
41928;DHT22;27616;51.420;6.788;2023-09-07T05:50:37;17.40;99.90
41928;DHT22;27616;51.420;6.788;2023-09-07T05:53:04;17.50;99.90
41928;DHT22;27616;51.420;6.788;2023-09-07T05:55:30;17.50;99.90
41928;DHT22;27616;51.420;6.788;2023-09-07T05:57:57;17.60;99.90
41928;DHT22;27616;51.420;6.788;2023-09-07T06:00:23;17.70;99.90
41928;DHT22;27616;51.420;6.788;2023-09-07T06:02:50;17.80;99.90
41928;DHT22;27616;51.420;6.788;2023-09-07T06:05:16;18.00;99.90
41928;DHT22;27616;51.420;6.788;2023-09-07T06:07:43;18.00;99.90
41928;DHT22;27616;51.420;6.788;2023-09-07T06:10:09;18.10;99.90
41928;DHT22;27616;51.420;6.788;2023-09-07T06:12:35;18.10;99.90
41928;DHT22;27616;51.420;6.788;2023-09-07T06:15:04;18.20;99.90
41928;DHT22;27616;51.420;6.788;2023-09-07T06:17:30;18.30;99.90
41928;DHT22;27616;51.420;6.788;2023-09-07T06:19:56;18.30;99.90
41928;DHT22;27616;51.420;6.788;2023-09-07T06:22:23;18.40;99.90
41928;DHT22;27616;51.420;6.788;2023-09-07T06:24:50;18.40;99.90
41928;DHT22;27616;51.420;6.788;2023-09-07T06:27:15;18.50;99.90
41928;DHT22;27616;51.420;6.788;2023-09-07T06:29:41;18.60;99.90
41928;DHT22;27616;51.420;6.788;2023-09-07T06:32:07;18.70;99.90
41928;DHT22;27616;51.420;6.788;2023-09-07T06:34:33;18.80;99.90
41928;DHT22;27616;51.420;6.788;2023-09-07T06:36:58;19.10;99.90
41928;DHT22;27616;51.420;6.788;2023-09-07T06:39:24;19.40;99.90
41928;DHT22;27616;51.420;6.788;2023-09-07T06:41:51;19.60;99.90
41928;DHT22;27616;51.420;6.788;2023-09-07T06:44:19;19.80;99.90
41928;DHT22;27616;51.420;6.788;2023-09-07T06:46:46;20.00;99.90
41928;DHT22;27616;51.420;6.788;2023-09-07T06:49:12;20.10;99.90
41928;DHT22;27616;51.420;6.788;2023-09-07T06:51:38;20.10;99.90
41928;DHT22;27616;51.420;6.788;2023-09-07T06:54:05;20.10;99.90
41928;DHT22;27616;51.420;6.788;2023-09-07T06:56:30;20.10;99.90
41928;DHT22;27616;51.420;6.788;2023-09-07T06:58:58;20.10;99.90
41928;DHT22;27616;51.420;6.788;2023-09-07T07:01:24;20.20;99.90
41928;DHT22;27616;51.420;6.788;2023-09-07T07:03:50;20.20;99.90
41928;DHT22;27616;51.420;6.788;2023-09-07T07:06:16;20.30;99.90
41928;DHT22;27616;51.420;6.788;2023-09-07T07:08:42;20.40;99.90
41928;DHT22;27616;51.420;6.788;2023-09-07T07:11:08;20.50;99.90
41928;DHT22;27616;51.420;6.788;2023-09-07T07:13:34;20.60;99.90
41928;DHT22;27616;51.420;6.788;2023-09-07T07:16:00;20.70;99.90
41928;DHT22;27616;51.420;6.788;2023-09-07T07:18:26;20.80;99.90
41928;DHT22;27616;51.420;6.788;2023-09-07T07:20:55;20.90;99.90
41928;DHT22;27616;51.420;6.788;2023-09-07T07:23:20;21.00;99.90
41928;DHT22;27616;51.420;6.788;2023-09-07T07:25:46;21.00;99.90
41928;DHT22;27616;51.420;6.788;2023-09-07T07:28:12;21.10;99.90
41928;DHT22;27616;51.420;6.788;2023-09-07T07:30:39;21.20;99.90
41928;DHT22;27616;51.420;6.788;2023-09-07T07:33:08;21.40;99.90
41928;DHT22;27616;51.420;6.788;2023-09-07T07:35:36;21.50;99.90
41928;DHT22;27616;51.420;6.788;2023-09-07T07:38:03;21.70;99.90
41928;DHT22;27616;51.420;6.788;2023-09-07T07:40:34;21.90;99.90
41928;DHT22;27616;51.420;6.788;2023-09-07T07:43:00;22.20;99.90
41928;DHT22;27616;51.420;6.788;2023-09-07T07:45:26;22.50;99.90
41928;DHT22;27616;51.420;6.788;2023-09-07T07:47:53;22.70;99.90
41928;DHT22;27616;51.420;6.788;2023-09-07T07:50:19;22.80;99.90
41928;DHT22;27616;51.420;6.788;2023-09-07T07:52:46;23.10;99.90
41928;DHT22;27616;51.420;6.788;2023-09-07T07:55:12;23.10;99.90
41928;DHT22;27616;51.420;6.788;2023-09-07T07:57:39;23.20;99.90
41928;DHT22;27616;51.420;6.788;2023-09-07T08:00:06;23.30;99.90
41928;DHT22;27616;51.420;6.788;2023-09-07T08:02:39;23.60;99.90
41928;DHT22;27616;51.420;6.788;2023-09-07T08:05:07;23.80;99.90
41928;DHT22;27616;51.420;6.788;2023-09-07T08:07:33;23.90;99.90
41928;DHT22;27616;51.420;6.788;2023-09-07T08:09:59;24.00;99.90
41928;DHT22;27616;51.420;6.788;2023-09-07T08:12:26;24.20;99.90
41928;DHT22;27616;51.420;6.788;2023-09-07T08:14:52;24.20;99.90
41928;DHT22;27616;51.420;6.788;2023-09-07T08:17:17;24.20;99.90
41928;DHT22;27616;51.420;6.788;2023-09-07T08:19:45;24.30;99.90
41928;DHT22;27616;51.420;6.788;2023-09-07T08:22:14;24.40;99.90
41928;DHT22;27616;51.420;6.788;2023-09-07T08:24:41;24.50;99.90
41928;DHT22;27616;51.420;6.788;2023-09-07T08:27:09;24.60;99.90
41928;DHT22;27616;51.420;6.788;2023-09-07T08:29:37;24.70;99.90
41928;DHT22;27616;51.420;6.788;2023-09-07T08:32:03;24.70;99.90
41928;DHT22;27616;51.420;6.788;2023-09-07T08:34:29;24.90;99.90
41928;DHT22;27616;51.420;6.788;2023-09-07T08:36:55;25.00;99.90
41928;DHT22;27616;51.420;6.788;2023-09-07T08:39:24;25.20;99.90
41928;DHT22;27616;51.420;6.788;2023-09-07T08:41:50;25.40;99.90
41928;DHT22;27616;51.420;6.788;2023-09-07T08:44:17;25.50;99.90
41928;DHT22;27616;51.420;6.788;2023-09-07T08:46:45;25.40;99.90
41928;DHT22;27616;51.420;6.788;2023-09-07T08:49:11;25.50;99.90
41928;DHT22;27616;51.420;6.788;2023-09-07T08:51:37;25.50;99.90
41928;DHT22;27616;51.420;6.788;2023-09-07T08:54:03;25.70;99.90
41928;DHT22;27616;51.420;6.788;2023-09-07T08:56:29;25.90;99.90
41928;DHT22;27616;51.420;6.788;2023-09-07T08:58:55;25.90;99.90
41928;DHT22;27616;51.420;6.788;2023-09-07T09:01:21;26.00;99.90
41928;DHT22;27616;51.420;6.788;2023-09-07T09:03:48;26.10;99.90
41928;DHT22;27616;51.420;6.788;2023-09-07T09:06:16;26.20;99.80
41928;DHT22;27616;51.420;6.788;2023-09-07T09:08:46;26.20;99.90
41928;DHT22;27616;51.420;6.788;2023-09-07T09:11:15;26.40;99.90
41928;DHT22;27616;51.420;6.788;2023-09-07T09:13:41;26.40;99.90
41928;DHT22;27616;51.420;6.788;2023-09-07T09:16:07;26.60;99.30
41928;DHT22;27616;51.420;6.788;2023-09-07T09:18:33;26.80;99.40
41928;DHT22;27616;51.420;6.788;2023-09-07T09:20:59;26.90;99.10
41928;DHT22;27616;51.420;6.788;2023-09-07T09:23:35;27.20;98.00
41928;DHT22;27616;51.420;6.788;2023-09-07T09:26:02;27.30;98.00
41928;DHT22;27616;51.420;6.788;2023-09-07T09:28:33;27.30;97.90
41928;DHT22;27616;51.420;6.788;2023-09-07T09:31:00;27.30;97.90
41928;DHT22;27616;51.420;6.788;2023-09-07T09:33:27;27.30;97.70
41928;DHT22;27616;51.420;6.788;2023-09-07T09:35:54;27.40;98.30
41928;DHT22;27616;51.420;6.788;2023-09-07T09:38:20;27.50;97.00
41928;DHT22;27616;51.420;6.788;2023-09-07T09:40:46;27.50;97.10
41928;DHT22;27616;51.420;6.788;2023-09-07T09:43:13;27.50;96.20
41928;DHT22;27616;51.420;6.788;2023-09-07T09:45:39;27.50;96.90
41928;DHT22;27616;51.420;6.788;2023-09-07T09:48:05;27.50;96.00
41928;DHT22;27616;51.420;6.788;2023-09-07T09:50:32;27.60;97.10
41928;DHT22;27616;51.420;6.788;2023-09-07T09:53:06;27.60;96.70
41928;DHT22;27616;51.420;6.788;2023-09-07T09:55:35;27.70;98.10
41928;DHT22;27616;51.420;6.788;2023-09-07T09:58:01;27.90;96.10
41928;DHT22;27616;51.420;6.788;2023-09-07T10:00:28;28.10;95.10
41928;DHT22;27616;51.420;6.788;2023-09-07T10:03:33;28.10;95.00
41928;DHT22;27616;51.420;6.788;2023-09-07T10:06:12;28.20;95.60
41928;DHT22;27616;51.420;6.788;2023-09-07T10:08:39;28.40;96.00
41928;DHT22;27616;51.420;6.788;2023-09-07T10:11:08;28.60;95.10
41928;DHT22;27616;51.420;6.788;2023-09-07T10:13:35;28.80;95.20
41928;DHT22;27616;51.420;6.788;2023-09-07T10:16:05;29.10;95.50
41928;DHT22;27616;51.420;6.788;2023-09-07T10:18:37;29.30;94.30
41928;DHT22;27616;51.420;6.788;2023-09-07T10:21:03;29.60;92.40
41928;DHT22;27616;51.420;6.788;2023-09-07T10:23:40;29.90;92.70
41928;DHT22;27616;51.420;6.788;2023-09-07T10:26:15;29.90;91.50
41928;DHT22;27616;51.420;6.788;2023-09-07T10:28:41;29.90;91.40
41928;DHT22;27616;51.420;6.788;2023-09-07T10:31:19;29.80;92.00
41928;DHT22;27616;51.420;6.788;2023-09-07T10:33:46;29.80;92.00
41928;DHT22;27616;51.420;6.788;2023-09-07T10:36:22;30.20;91.80
41928;DHT22;27616;51.420;6.788;2023-09-07T10:38:49;30.50;91.00
41928;DHT22;27616;51.420;6.788;2023-09-07T10:41:14;30.70;91.20
41928;DHT22;27616;51.420;6.788;2023-09-07T10:43:47;30.90;90.40
41928;DHT22;27616;51.420;6.788;2023-09-07T10:46:13;31.00;90.30
41928;DHT22;27616;51.420;6.788;2023-09-07T10:48:39;31.00;88.20
41928;DHT22;27616;51.420;6.788;2023-09-07T10:51:06;30.80;90.30
41928;DHT22;27616;51.420;6.788;2023-09-07T10:53:32;30.90;90.10
41928;DHT22;27616;51.420;6.788;2023-09-07T10:55:59;30.90;90.00
41928;DHT22;27616;51.420;6.788;2023-09-07T10:58:32;30.70;88.20
41928;DHT22;27616;51.420;6.788;2023-09-07T11:00:58;30.60;89.10
41928;DHT22;27616;51.420;6.788;2023-09-07T11:03:25;30.70;87.40
41928;DHT22;27616;51.420;6.788;2023-09-07T11:06:01;30.80;87.90
41928;DHT22;27616;51.420;6.788;2023-09-07T11:08:29;30.80;87.10
41928;DHT22;27616;51.420;6.788;2023-09-07T11:10:55;30.70;88.90
41928;DHT22;27616;51.420;6.788;2023-09-07T11:13:22;30.60;88.80
41928;DHT22;27616;51.420;6.788;2023-09-07T11:15:49;30.60;88.50
41928;DHT22;27616;51.420;6.788;2023-09-07T11:18:20;30.50;88.80
41928;DHT22;27616;51.420;6.788;2023-09-07T11:20:46;30.50;88.50
41928;DHT22;27616;51.420;6.788;2023-09-07T11:23:12;30.50;88.90
41928;DHT22;27616;51.420;6.788;2023-09-07T11:25:39;30.40;87.80
41928;DHT22;27616;51.420;6.788;2023-09-07T11:28:05;30.40;88.20
41928;DHT22;27616;51.420;6.788;2023-09-07T11:30:32;30.40;89.60
41928;DHT22;27616;51.420;6.788;2023-09-07T11:33:02;30.60;87.10
41928;DHT22;27616;51.420;6.788;2023-09-07T11:35:29;30.70;86.00
41928;DHT22;27616;51.420;6.788;2023-09-07T11:37:55;30.60;87.10
41928;DHT22;27616;51.420;6.788;2023-09-07T11:40:20;30.50;86.00
41928;DHT22;27616;51.420;6.788;2023-09-07T11:42:46;30.60;86.00
41928;DHT22;27616;51.420;6.788;2023-09-07T11:45:12;30.60;88.10
41928;DHT22;27616;51.420;6.788;2023-09-07T11:47:39;30.60;85.90
41928;DHT22;27616;51.420;6.788;2023-09-07T11:50:05;30.70;84.30
41928;DHT22;27616;51.420;6.788;2023-09-07T11:52:32;30.70;83.80
41928;DHT22;27616;51.420;6.788;2023-09-07T11:54:58;30.70;83.50
41928;DHT22;27616;51.420;6.788;2023-09-07T11:57:23;30.70;83.90
41928;DHT22;27616;51.420;6.788;2023-09-07T11:59:49;30.70;87.50
41928;DHT22;27616;51.420;6.788;2023-09-07T12:02:14;30.60;85.70
41928;DHT22;27616;51.420;6.788;2023-09-07T12:04:41;30.60;82.30
41928;DHT22;27616;51.420;6.788;2023-09-07T12:07:07;30.70;82.80
41928;DHT22;27616;51.420;6.788;2023-09-07T12:09:33;30.70;84.30
41928;DHT22;27616;51.420;6.788;2023-09-07T12:11:58;30.60;84.00
41928;DHT22;27616;51.420;6.788;2023-09-07T12:14:24;30.70;84.20
41928;DHT22;27616;51.420;6.788;2023-09-07T12:16:49;30.70;84.50
41928;DHT22;27616;51.420;6.788;2023-09-07T12:19:15;30.80;84.00
41928;DHT22;27616;51.420;6.788;2023-09-07T12:21:41;30.70;84.70
41928;DHT22;27616;51.420;6.788;2023-09-07T12:24:07;30.60;84.20
41928;DHT22;27616;51.420;6.788;2023-09-07T12:26:33;30.60;83.20
41928;DHT22;27616;51.420;6.788;2023-09-07T12:28:59;30.50;83.00
41928;DHT22;27616;51.420;6.788;2023-09-07T12:31:25;30.60;84.20
41928;DHT22;27616;51.420;6.788;2023-09-07T12:33:51;30.80;83.10
41928;DHT22;27616;51.420;6.788;2023-09-07T12:36:17;30.80;81.90
41928;DHT22;27616;51.420;6.788;2023-09-07T12:38:43;30.80;81.40
41928;DHT22;27616;51.420;6.788;2023-09-07T12:41:08;30.80;81.10
41928;DHT22;27616;51.420;6.788;2023-09-07T12:43:34;30.60;83.40
41928;DHT22;27616;51.420;6.788;2023-09-07T12:46:00;30.60;81.20
41928;DHT22;27616;51.420;6.788;2023-09-07T12:48:26;30.60;82.30
41928;DHT22;27616;51.420;6.788;2023-09-07T12:50:51;30.50;83.10
41928;DHT22;27616;51.420;6.788;2023-09-07T12:53:17;30.60;85.00
41928;DHT22;27616;51.420;6.788;2023-09-07T12:55:43;30.70;84.80
41928;DHT22;27616;51.420;6.788;2023-09-07T12:58:09;30.70;83.70
41928;DHT22;27616;51.420;6.788;2023-09-07T13:00:34;30.80;82.50
41928;DHT22;27616;51.420;6.788;2023-09-07T13:03:00;30.90;83.20
41928;DHT22;27616;51.420;6.788;2023-09-07T13:05:26;31.00;82.70
41928;DHT22;27616;51.420;6.788;2023-09-07T13:07:51;31.10;83.20
41928;DHT22;27616;51.420;6.788;2023-09-07T13:10:17;31.10;81.80
41928;DHT22;27616;51.420;6.788;2023-09-07T13:12:44;31.20;83.30
41928;DHT22;27616;51.420;6.788;2023-09-07T13:15:09;31.20;81.10
41928;DHT22;27616;51.420;6.788;2023-09-07T13:17:35;31.30;80.40
41928;DHT22;27616;51.420;6.788;2023-09-07T13:20:01;31.40;79.10
41928;DHT22;27616;51.420;6.788;2023-09-07T13:22:26;31.50;79.60
41928;DHT22;27616;51.420;6.788;2023-09-07T13:24:52;31.40;80.10
41928;DHT22;27616;51.420;6.788;2023-09-07T13:27:18;31.50;77.70
41928;DHT22;27616;51.420;6.788;2023-09-07T13:29:43;31.50;80.20
41928;DHT22;27616;51.420;6.788;2023-09-07T13:32:09;31.60;78.40
41928;DHT22;27616;51.420;6.788;2023-09-07T13:34:35;31.70;79.40
41928;DHT22;27616;51.420;6.788;2023-09-07T13:37:00;31.70;80.10
41928;DHT22;27616;51.420;6.788;2023-09-07T13:39:26;31.60;77.40
41928;DHT22;27616;51.420;6.788;2023-09-07T13:41:51;31.50;78.00
41928;DHT22;27616;51.420;6.788;2023-09-07T13:44:17;31.40;78.10
41928;DHT22;27616;51.420;6.788;2023-09-07T13:46:44;31.40;77.60
41928;DHT22;27616;51.420;6.788;2023-09-07T13:49:10;31.30;79.30
41928;DHT22;27616;51.420;6.788;2023-09-07T13:51:36;31.20;80.80
41928;DHT22;27616;51.420;6.788;2023-09-07T13:54:06;31.20;82.30
41928;DHT22;27616;51.420;6.788;2023-09-07T13:56:32;31.20;82.00
41928;DHT22;27616;51.420;6.788;2023-09-07T13:58:58;31.10;82.30
41928;DHT22;27616;51.420;6.788;2023-09-07T14:01:24;31.00;82.00
41928;DHT22;27616;51.420;6.788;2023-09-07T14:03:50;31.00;83.00
41928;DHT22;27616;51.420;6.788;2023-09-07T14:06:17;30.90;82.20
41928;DHT22;27616;51.420;6.788;2023-09-07T14:08:46;31.00;82.90
41928;DHT22;27616;51.420;6.788;2023-09-07T14:11:14;30.90;83.20
41928;DHT22;27616;51.420;6.788;2023-09-07T14:13:39;30.90;83.60
41928;DHT22;27616;51.420;6.788;2023-09-07T14:16:05;31.00;83.00
41928;DHT22;27616;51.420;6.788;2023-09-07T14:18:30;31.00;84.30
41928;DHT22;27616;51.420;6.788;2023-09-07T14:20:56;31.00;83.60
41928;DHT22;27616;51.420;6.788;2023-09-07T14:23:24;31.00;83.80
41928;DHT22;27616;51.420;6.788;2023-09-07T14:25:51;31.20;83.30
41928;DHT22;27616;51.420;6.788;2023-09-07T14:28:17;31.10;82.10
41928;DHT22;27616;51.420;6.788;2023-09-07T14:30:43;31.10;82.30
41928;DHT22;27616;51.420;6.788;2023-09-07T14:33:08;31.10;84.00
41928;DHT22;27616;51.420;6.788;2023-09-07T14:35:34;31.00;82.50
41928;DHT22;27616;51.420;6.788;2023-09-07T14:38:00;30.90;82.70
41928;DHT22;27616;51.420;6.788;2023-09-07T14:40:26;31.00;81.70
41928;DHT22;27616;51.420;6.788;2023-09-07T14:42:52;30.90;81.80
41928;DHT22;27616;51.420;6.788;2023-09-07T14:45:19;30.90;82.70
41928;DHT22;27616;51.420;6.788;2023-09-07T14:47:45;30.90;81.70
41928;DHT22;27616;51.420;6.788;2023-09-07T14:50:10;30.90;82.90
41928;DHT22;27616;51.420;6.788;2023-09-07T14:52:36;30.90;83.70
41928;DHT22;27616;51.420;6.788;2023-09-07T14:55:10;30.90;82.90
41928;DHT22;27616;51.420;6.788;2023-09-07T14:57:35;30.90;82.30
41928;DHT22;27616;51.420;6.788;2023-09-07T15:00:02;30.90;82.10
41928;DHT22;27616;51.420;6.788;2023-09-07T15:02:29;30.90;82.70
41928;DHT22;27616;51.420;6.788;2023-09-07T15:04:54;30.90;82.60
41928;DHT22;27616;51.420;6.788;2023-09-07T15:07:20;30.90;82.30
41928;DHT22;27616;51.420;6.788;2023-09-07T15:09:49;30.90;82.20
41928;DHT22;27616;51.420;6.788;2023-09-07T15:12:15;30.90;82.40
41928;DHT22;27616;51.420;6.788;2023-09-07T15:14:40;30.90;79.90
41928;DHT22;27616;51.420;6.788;2023-09-07T15:17:06;30.90;81.40
41928;DHT22;27616;51.420;6.788;2023-09-07T15:19:33;30.80;80.60
41928;DHT22;27616;51.420;6.788;2023-09-07T15:22:00;30.90;81.10
41928;DHT22;27616;51.420;6.788;2023-09-07T15:24:25;30.90;80.50
41928;DHT22;27616;51.420;6.788;2023-09-07T15:26:51;30.90;80.50